createdAt,value
2018-05-29T00:02:03.188Z,17.43
2018-05-29T00:04:31.640Z,15.97
2018-05-29T00:07:00.598Z,16.80
2018-05-29T00:09:29.072Z,16.17
2018-05-29T00:11:57.517Z,17.40
2018-05-29T00:14:25.966Z,17.07
2018-05-29T00:16:54.420Z,16.17
2018-05-29T00:19:22.862Z,17.57
2018-05-29T00:21:51.307Z,17.57
2018-05-29T00:24:19.755Z,17.90
2018-05-29T00:26:48.211Z,17.97
2018-05-29T00:29:16.663Z,17.90
2018-05-29T00:31:45.683Z,18.27
2018-05-29T00:34:14.129Z,18.53
2018-05-29T00:36:42.587Z,18.00
2018-05-29T00:39:11.044Z,17.93
2018-05-29T00:41:39.532Z,18.57
2018-05-29T00:44:07.985Z,17.33
2018-05-29T00:46:36.428Z,17.50
2018-05-29T00:49:05.799Z,18.00
2018-05-29T00:51:34.492Z,18.60
2018-05-29T00:54:02.947Z,18.07
2018-05-29T00:56:31.599Z,18.57
2018-05-29T00:59:00.380Z,18.20
2018-05-29T01:01:28.823Z,18.07
2018-05-29T01:03:57.390Z,18.27
2018-05-29T01:06:25.837Z,20.27
2018-05-29T01:08:54.494Z,18.40
2018-05-29T01:11:23.494Z,19.20
2018-05-29T01:13:51.930Z,19.87
2018-05-29T01:16:20.390Z,19.47
2018-05-29T01:18:48.841Z,21.30
2018-05-29T01:21:17.292Z,22.50
2018-05-29T01:23:45.748Z,20.40
2018-05-29T01:26:14.195Z,22.17
2018-05-29T01:28:42.643Z,21.73
2018-05-29T01:31:11.544Z,22.03
2018-05-29T01:33:39.995Z,20.67
2018-05-29T01:36:09.312Z,19.37
2018-05-29T01:38:37.818Z,21.73
2018-05-29T01:41:07.980Z,22.10
2018-05-29T01:43:36.424Z,22.23
2018-05-29T01:46:04.879Z,23.67
2018-05-29T01:48:33.361Z,23.50
2018-05-29T01:51:01.810Z,24.00
2018-05-29T01:53:31.026Z,23.97
2018-05-29T01:55:59.892Z,24.63
2018-05-29T01:58:29.112Z,22.30
2018-05-29T02:00:57.571Z,23.93
2018-05-29T02:03:26.018Z,25.13
2018-05-29T02:05:54.469Z,24.37
2018-05-29T02:08:22.915Z,25.80
2018-05-29T02:10:51.355Z,25.53
2018-05-29T02:13:19.800Z,26.70
2018-05-29T02:15:48.248Z,26.23
2018-05-29T02:18:16.707Z,27.90
2018-05-29T02:20:45.395Z,26.53
2018-05-29T02:23:13.840Z,26.43
2018-05-29T02:25:42.294Z,26.00
2018-05-29T02:28:10.743Z,25.30
2018-05-29T02:30:39.196Z,24.40
2018-05-29T02:33:07.650Z,24.20
2018-05-29T02:35:36.103Z,24.03
2018-05-29T02:38:04.552Z,25.10
2018-05-29T02:40:33.004Z,24.63
2018-05-29T02:43:01.467Z,25.27
2018-05-29T02:45:30.675Z,27.57
2018-05-29T02:47:59.123Z,25.93
2018-05-29T02:50:27.571Z,27.47
2018-05-29T02:52:56.023Z,27.47
2018-05-29T02:55:24.479Z,28.40
2018-05-29T02:57:53.387Z,27.97
2018-05-29T03:00:22.604Z,27.13
2018-05-29T03:02:51.968Z,28.00
2018-05-29T03:05:20.419Z,28.63
2018-05-29T03:07:48.872Z,29.73
2018-05-29T03:10:18.139Z,28.77
2018-05-29T03:12:46.275Z,30.00
2018-05-29T03:15:14.729Z,28.50
2018-05-29T03:17:43.971Z,29.70
2018-05-29T03:20:12.887Z,29.13
2018-05-29T03:22:41.324Z,28.20
2018-05-29T03:25:09.779Z,30.20
2018-05-29T03:27:38.988Z,29.17
2018-05-29T03:30:07.544Z,28.13
2018-05-29T03:32:36.915Z,28.77
2018-05-29T03:35:05.383Z,31.00
2018-05-29T03:37:33.827Z,29.90
2018-05-29T03:40:02.291Z,32.30
2018-05-29T03:42:31.514Z,31.93
2018-05-29T03:44:59.985Z,31.00
2018-05-29T03:47:28.427Z,30.17
2018-05-29T03:49:56.900Z,31.03
2018-05-29T03:52:25.348Z,32.60
2018-05-29T03:54:53.822Z,31.07
2018-05-29T03:57:22.280Z,33.67
2018-05-29T03:59:51.387Z,35.40
2018-05-29T04:02:19.832Z,34.87
2018-05-29T04:04:48.304Z,33.93
2018-05-29T04:07:16.432Z,35.10
2018-05-29T04:09:44.900Z,33.30
2018-05-29T04:12:13.352Z,34.50
2018-05-29T04:14:41.819Z,35.07
2018-05-29T04:17:10.847Z,33.83
2018-05-29T04:19:39.752Z,34.03
2018-05-29T04:22:08.200Z,34.23
2018-05-29T04:24:36.663Z,35.53
2018-05-29T04:27:05.117Z,33.50
2018-05-29T04:29:33.583Z,34.63
2018-05-29T04:32:02.159Z,34.93
2018-05-29T04:34:30.642Z,33.67
2018-05-29T04:36:58.788Z,34.90
2018-05-29T04:39:27.244Z,34.47
2018-05-29T04:41:57.025Z,34.37
2018-05-29T04:44:25.478Z,34.87
2018-05-29T04:46:53.905Z,33.60
2018-05-29T04:49:22.899Z,34.63
2018-05-29T04:51:51.359Z,35.17
2018-05-29T04:54:19.836Z,34.43
2018-05-29T04:56:49.061Z,35.00
2018-05-29T04:59:19.160Z,34.93
2018-05-29T05:01:47.687Z,33.27
2018-05-29T05:04:16.139Z,33.53
2018-05-29T05:06:44.608Z,33.53
2018-05-29T05:09:13.051Z,32.57
2018-05-29T05:11:41.512Z,35.67
2018-05-29T05:14:09.975Z,34.97
2018-05-29T05:16:39.063Z,34.87
2018-05-29T05:19:07.514Z,32.90
2018-05-29T05:21:35.975Z,33.37
2018-05-29T05:24:04.436Z,32.70
2018-05-29T05:26:33.527Z,32.93
2018-05-29T05:29:01.976Z,33.00
2018-05-29T05:31:30.440Z,30.83
2018-05-29T05:33:59.489Z,32.80
2018-05-29T05:36:28.225Z,32.27
2018-05-29T05:38:56.775Z,31.00
2018-05-29T05:41:26.136Z,31.30
2018-05-29T05:43:54.586Z,30.97
2018-05-29T05:46:23.860Z,29.27
2018-05-29T05:48:52.309Z,30.40
2018-05-29T05:51:20.755Z,29.60
2018-05-29T05:53:49.223Z,30.10
2018-05-29T05:56:17.672Z,27.53
2018-05-29T05:58:46.133Z,29.00
2018-05-29T06:01:14.575Z,29.00
2018-05-29T06:03:43.035Z,27.70
2018-05-29T06:06:11.480Z,27.47
2018-05-29T06:08:39.937Z,26.87
2018-05-29T06:11:08.391Z,25.53
2018-05-29T06:13:36.888Z,24.83
2018-05-29T06:16:05.343Z,24.00
2018-05-29T06:18:33.791Z,21.17
2018-05-29T06:21:02.252Z,20.33
2018-05-29T06:23:30.722Z,18.57
2018-05-29T06:25:59.180Z,17.93
2018-05-29T06:28:28.580Z,18.20
2018-05-29T06:30:57.143Z,17.47
2018-05-29T06:33:25.608Z,15.20
2018-05-29T06:35:54.679Z,15.13
2018-05-29T06:38:23.462Z,15.45
2018-05-29T06:40:52.398Z,14.63
2018-05-29T06:43:21.423Z,14.40
2018-05-29T06:45:50.235Z,12.93
2018-05-29T06:48:19.432Z,13.10
2018-05-29T06:50:49.424Z,15.23
2018-05-29T06:53:18.450Z,13.38
2018-05-29T06:55:47.478Z,13.38
2018-05-29T06:58:17.430Z,12.75
2018-05-29T07:00:46.472Z,12.77
2018-05-29T07:03:15.491Z,12.27
2018-05-29T07:05:44.523Z,11.50
2018-05-29T07:08:13.548Z,12.30
2018-05-29T07:10:45.570Z,12.15
2018-05-29T07:13:18.135Z,12.07
2018-05-29T07:15:47.588Z,10.52
2018-05-29T07:18:17.831Z,19.58
2018-05-29T07:20:48.491Z,17.55
2018-05-29T07:23:18.147Z,12.63
2018-05-29T07:25:46.902Z,10.25
2018-05-29T07:28:15.903Z,10.23
2018-05-29T07:30:45.867Z,11.48
2018-05-29T07:33:14.914Z,13.25
2018-05-29T07:35:44.695Z,11.55
2018-05-29T07:38:13.723Z,11.20
2018-05-29T07:40:43.114Z,12.18
2018-05-29T07:43:12.601Z,11.57
2018-05-29T07:45:41.611Z,19.17
2018-05-29T07:48:10.692Z,11.45
2018-05-29T07:50:40.135Z,12.13
2018-05-29T07:53:09.155Z,10.85
2018-05-29T07:55:39.088Z,11.48
2018-05-29T07:58:09.555Z,10.32
2018-05-29T08:00:38.574Z,10.43
2018-05-29T08:03:08.011Z,10.02
2018-05-29T08:05:37.018Z,10.13
2018-05-29T08:08:06.783Z,10.73
2018-05-29T08:10:35.867Z,10.30
2018-05-29T08:13:04.290Z,9.70
2018-05-29T08:15:33.322Z,10.27
2018-05-29T08:18:03.112Z,9.90
2018-05-29T08:20:32.121Z,10.63
2018-05-29T08:23:01.168Z,10.82
2018-05-29T08:25:30.204Z,9.75
2018-05-29T08:28:01.074Z,10.93
2018-05-29T08:30:31.006Z,10.70
2018-05-29T08:33:01.749Z,10.43
2018-05-29T08:35:32.395Z,10.27
2018-05-29T08:38:02.124Z,19.75
2018-05-29T08:40:32.471Z,19.58
2018-05-29T08:43:02.387Z,12.48
2018-05-29T08:45:31.461Z,27.92
2018-05-29T08:48:00.860Z,9.57
2018-05-29T08:50:31.114Z,9.75
2018-05-29T08:53:00.655Z,9.38
2018-05-29T08:55:29.907Z,13.45
2018-05-29T08:58:00.700Z,9.68
2018-05-29T09:00:30.582Z,10.27
2018-05-29T09:03:00.547Z,11.70
2018-05-29T09:05:29.234Z,10.43
2018-05-29T09:07:58.242Z,13.23
2018-05-29T09:10:27.249Z,10.20
2018-05-29T09:12:56.246Z,9.50
2018-05-29T09:15:25.242Z,9.45
2018-05-29T09:17:54.243Z,8.88
2018-05-29T09:20:24.024Z,10.57
2018-05-29T09:22:53.024Z,8.82
2018-05-29T09:25:22.023Z,8.43
2018-05-29T09:27:51.024Z,9.00
2018-05-29T09:30:20.023Z,8.70
2018-05-29T09:32:49.043Z,8.80
2018-05-29T09:35:18.052Z,8.57
2018-05-29T09:37:47.063Z,8.77
2018-05-29T09:40:16.843Z,8.90
2018-05-29T09:42:46.019Z,8.23
2018-05-29T09:45:15.035Z,9.52
2018-05-29T09:47:44.608Z,9.00
2018-05-29T09:50:13.044Z,8.30
2018-05-29T09:52:41.477Z,9.00
2018-05-29T09:55:09.935Z,9.63
2018-05-29T09:57:38.386Z,10.57
2018-05-29T10:00:06.831Z,10.47
2018-05-29T10:02:35.307Z,9.37
2018-05-29T10:05:03.411Z,12.10
2018-05-29T10:07:31.856Z,10.43
2018-05-29T10:10:00.626Z,9.77
2018-05-29T10:12:29.879Z,11.77
2018-05-29T10:14:58.364Z,10.47
2018-05-29T10:17:26.844Z,10.37
2018-05-29T10:19:55.298Z,11.33
2018-05-29T10:22:24.971Z,11.20
2018-05-29T10:24:53.419Z,11.57
2018-05-29T10:27:21.903Z,11.17
2018-05-29T10:29:50.347Z,10.87
2018-05-29T10:32:18.792Z,13.33
2018-05-29T10:34:48.271Z,11.27
2018-05-29T10:37:16.712Z,11.17
2018-05-29T10:39:45.155Z,12.67
2018-05-29T10:42:13.616Z,11.17
2018-05-29T10:44:42.063Z,17.23
2018-05-29T10:47:10.538Z,11.47
2018-05-29T10:49:38.983Z,13.83
2018-05-29T10:52:07.492Z,16.07
2018-05-29T10:54:35.939Z,11.57
2018-05-29T10:57:04.379Z,10.63
2018-05-29T10:59:32.829Z,12.33
2018-05-29T11:02:02.044Z,11.30
2018-05-29T11:04:30.493Z,11.33
2018-05-29T11:06:59.010Z,10.27
2018-05-29T11:09:27.594Z,10.90
2018-05-29T11:11:56.036Z,10.43
2018-05-29T11:14:24.489Z,11.03
2018-05-29T11:16:54.144Z,10.73
2018-05-29T11:19:22.592Z,11.73
2018-05-29T11:21:51.038Z,12.33
2018-05-29T11:24:19.487Z,11.67
2018-05-29T11:26:47.930Z,13.43
2018-05-29T11:29:17.603Z,10.30
2018-05-29T11:31:46.463Z,11.03
2018-05-29T11:34:14.907Z,11.17
2018-05-29T11:36:43.034Z,11.93
2018-05-29T11:39:11.540Z,11.20
2018-05-29T11:41:40.911Z,10.63
2018-05-29T11:44:09.355Z,9.70
2018-05-29T11:46:37.800Z,10.83
2018-05-29T11:49:05.911Z,10.53
2018-05-29T11:51:34.352Z,10.57
2018-05-29T11:54:03.651Z,10.97
2018-05-29T11:56:32.088Z,11.40
2018-05-29T11:59:00.559Z,14.17
2018-05-29T12:01:29.015Z,11.37
2018-05-29T12:04:00.821Z,11.63
2018-05-29T12:06:29.278Z,10.77
2018-05-29T12:08:57.724Z,10.63
2018-05-29T12:11:25.505Z,15.97
2018-05-29T12:13:53.944Z,13.43
2018-05-29T12:16:23.160Z,11.63
2018-05-29T12:18:51.599Z,15.60
2018-05-29T12:21:20.052Z,14.83
2018-05-29T12:23:48.496Z,12.90
2018-05-29T12:26:16.983Z,12.63
2018-05-29T12:28:45.454Z,12.57
2018-05-29T12:31:13.947Z,13.83
2018-05-29T12:33:42.456Z,17.33
2018-05-29T12:36:10.907Z,12.80
2018-05-29T12:38:39.392Z,12.53
2018-05-29T12:41:07.883Z,12.70
2018-05-29T12:43:36.344Z,12.73
2018-05-29T12:46:04.824Z,11.57
2018-05-29T12:48:33.119Z,12.80
2018-05-29T12:51:01.610Z,12.20
2018-05-29T12:53:30.387Z,11.87
2018-05-29T12:55:58.835Z,11.37
2018-05-29T12:58:27.691Z,11.47
2018-05-29T13:00:57.837Z,12.47
2018-05-29T13:03:26.005Z,14.70
2018-05-29T13:05:55.396Z,11.00
2018-05-29T13:08:23.853Z,12.23
2018-05-29T13:10:52.332Z,11.80
2018-05-29T13:13:21.199Z,14.80
2018-05-29T13:15:50.619Z,13.57
2018-05-29T13:18:21.067Z,12.67
2018-05-29T13:20:51.053Z,18.73
2018-05-29T13:23:20.943Z,11.77
2018-05-29T13:25:50.957Z,12.70
2018-05-29T13:28:20.791Z,13.60
2018-05-29T13:30:49.298Z,17.03
2018-05-29T13:33:17.749Z,12.93
2018-05-29T13:35:46.191Z,14.27
2018-05-29T13:38:14.640Z,14.07
2018-05-29T13:40:43.083Z,14.20
2018-05-29T13:43:11.523Z,13.93
2018-05-29T13:45:39.971Z,13.07
2018-05-29T13:48:08.424Z,13.13
2018-05-29T13:50:36.870Z,15.67
2018-05-29T13:53:05.008Z,13.67
2018-05-29T13:55:33.458Z,15.63
2018-05-29T13:58:01.563Z,13.53
2018-05-29T14:00:30.016Z,13.77
2018-05-29T14:02:58.467Z,13.70
2018-05-29T14:05:26.911Z,14.03
2018-05-29T14:07:55.432Z,16.70
2018-05-29T14:10:23.876Z,15.37
2018-05-29T14:12:53.086Z,14.23
2018-05-29T14:15:21.527Z,14.00
2018-05-29T14:17:49.973Z,13.10
2018-05-29T14:20:18.431Z,13.97
2018-05-29T14:22:46.877Z,13.93
2018-05-29T14:25:15.311Z,18.10
2018-05-29T14:27:43.764Z,12.93
2018-05-29T14:30:12.212Z,11.10
2018-05-29T14:32:40.660Z,10.80
2018-05-29T14:35:09.107Z,13.90
2018-05-29T14:37:37.559Z,17.53
2018-05-29T14:40:06.022Z,25.53
2018-05-29T14:42:35.232Z,20.13
2018-05-29T14:45:03.969Z,10.37
2018-05-29T14:47:32.413Z,14.43
2018-05-29T14:50:00.867Z,12.03
2018-05-29T14:52:29.319Z,12.57
2018-05-29T14:54:57.754Z,10.33
2018-05-29T14:57:26.200Z,10.87
2018-05-29T14:59:54.638Z,10.70
2018-05-29T15:02:23.078Z,10.83
2018-05-29T15:04:51.514Z,11.57
2018-05-29T15:07:19.952Z,10.43
2018-05-29T15:09:48.400Z,11.27
2018-05-29T15:12:16.843Z,14.47
2018-05-29T15:14:45.290Z,10.63
2018-05-29T15:17:13.758Z,11.13
2018-05-29T15:19:43.928Z,12.10
2018-05-29T15:22:12.390Z,11.30
2018-05-29T15:24:40.843Z,39.23
2018-05-29T15:27:09.487Z,20.93
2018-05-29T15:29:38.210Z,12.20
2018-05-29T15:32:06.658Z,13.90
2018-05-29T15:34:34.769Z,15.40
2018-05-29T15:37:03.220Z,11.70
2018-05-29T15:39:31.665Z,13.77
2018-05-29T15:42:00.428Z,15.37
2018-05-29T15:44:29.543Z,12.40
2018-05-29T15:46:57.995Z,15.47
2018-05-29T15:49:26.435Z,13.63
2018-05-29T15:51:54.583Z,14.23
2018-05-29T15:54:23.026Z,11.67
2018-05-29T15:56:51.138Z,14.07
2018-05-29T15:59:19.242Z,12.27
2018-05-29T16:01:47.010Z,12.10
2018-05-29T16:04:15.455Z,12.27
2018-05-29T16:06:44.137Z,12.30
2018-05-29T16:09:12.890Z,12.43
2018-05-29T16:11:41.358Z,12.83
2018-05-29T16:14:10.337Z,13.07
2018-05-29T16:16:38.796Z,11.27
2018-05-29T16:19:07.243Z,12.13
2018-05-29T16:21:35.691Z,11.63
2018-05-29T16:24:03.804Z,13.07
2018-05-29T16:26:33.097Z,13.10
2018-05-29T16:29:01.674Z,12.73
2018-05-29T16:31:30.114Z,11.60
2018-05-29T16:33:58.564Z,12.50
2018-05-29T16:36:27.694Z,11.63
2018-05-29T16:38:56.690Z,11.80
2018-05-29T16:41:25.970Z,19.53
2018-05-29T16:43:54.242Z,14.60
2018-05-29T16:46:23.466Z,10.93
2018-05-29T16:48:51.902Z,13.10
2018-05-29T16:51:20.694Z,11.93
2018-05-29T16:53:49.915Z,11.13
2018-05-29T16:56:18.730Z,9.73
2018-05-29T16:58:47.170Z,11.60
2018-05-29T17:01:16.367Z,8.60
2018-05-29T17:03:45.263Z,9.23
2018-05-29T17:06:13.708Z,10.20
2018-05-29T17:08:42.497Z,8.90
2018-05-29T17:11:11.056Z,9.60
2018-05-29T17:13:39.491Z,9.07
2018-05-29T17:16:08.382Z,9.27
2018-05-29T17:18:36.852Z,9.53
2018-05-29T17:21:05.325Z,13.40
2018-05-29T17:23:35.483Z,11.67
2018-05-29T17:26:05.131Z,21.20
2018-05-29T17:28:33.591Z,11.47
2018-05-29T17:31:02.163Z,11.30
2018-05-29T17:33:30.638Z,11.53
2018-05-29T17:35:59.088Z,14.37
2018-05-29T17:38:27.563Z,14.10
2018-05-29T17:40:56.011Z,11.23
2018-05-29T17:43:24.454Z,13.13
2018-05-29T17:45:52.902Z,11.43
2018-05-29T17:48:21.468Z,10.20
2018-05-29T17:50:49.927Z,10.87
2018-05-29T17:53:18.375Z,10.23
2018-05-29T17:55:46.815Z,10.90
2018-05-29T17:58:15.258Z,11.30
2018-05-29T18:00:43.605Z,14.37
2018-05-29T18:03:12.102Z,10.63
2018-05-29T18:05:40.751Z,10.53
2018-05-29T18:08:09.216Z,12.83
2018-05-29T18:10:38.620Z,11.40
2018-05-29T18:13:06.783Z,11.30
2018-05-29T18:15:35.236Z,12.67
2018-05-29T18:18:03.687Z,12.37
2018-05-29T18:20:32.193Z,12.07
2018-05-29T18:23:01.387Z,12.97
2018-05-29T18:25:29.847Z,13.10
2018-05-29T18:27:58.299Z,14.73
2018-05-29T18:30:26.739Z,15.47
2018-05-29T18:32:55.179Z,16.20
2018-05-29T18:35:24.179Z,17.17
2018-05-29T18:37:52.834Z,19.20
2018-05-29T18:40:21.440Z,19.37
2018-05-29T18:42:49.943Z,18.87
2018-05-29T18:45:18.514Z,18.87
2018-05-29T18:47:49.596Z,20.10
2018-05-29T18:50:19.919Z,17.97
2018-05-29T19:01:26.013Z,17.63
2018-05-29T19:03:54.659Z,13.80
2018-05-29T19:06:23.313Z,13.90
2018-05-29T19:08:51.808Z,11.50
2018-05-29T19:11:20.248Z,9.93
2018-05-29T19:13:48.704Z,11.27
2018-05-29T19:16:17.571Z,11.53
2018-05-29T19:18:46.026Z,11.27
2018-05-29T19:21:15.256Z,10.10
2018-05-29T19:23:44.093Z,10.30
2018-05-29T19:26:12.584Z,11.83
2018-05-29T19:28:41.056Z,11.83
2018-05-29T19:31:09.503Z,10.77
2018-05-29T19:33:37.955Z,11.13
2018-05-29T19:36:07.222Z,11.93
2018-05-29T19:38:35.671Z,15.00
2018-05-29T19:41:04.130Z,12.83
2018-05-29T19:43:32.598Z,10.80
2018-05-29T19:46:04.221Z,11.40
2018-05-29T19:48:32.671Z,11.87
2018-05-29T19:51:06.971Z,12.37
2018-05-29T19:53:34.775Z,11.37
2018-05-29T19:56:03.419Z,14.50
2018-05-29T19:58:32.210Z,14.27
2018-05-29T20:01:04.564Z,12.60
2018-05-29T20:03:33.882Z,11.60
2018-05-29T20:06:02.623Z,11.13
2018-05-29T20:08:32.676Z,11.80
2018-05-29T20:11:02.952Z,11.67
2018-05-29T20:13:32.057Z,12.07
2018-05-29T20:16:06.053Z,11.60
2018-05-29T20:18:36.502Z,11.80
2018-05-29T20:21:06.675Z,11.83
2018-05-29T20:23:36.731Z,12.87
2018-05-29T20:26:08.930Z,11.80
2018-05-29T20:28:37.584Z,12.53
2018-05-29T20:31:06.925Z,12.77
2018-05-29T20:33:35.400Z,14.93
2018-05-29T20:36:04.859Z,15.00
2018-05-29T20:38:34.056Z,15.10
2018-05-29T20:41:02.877Z,15.03
2018-05-29T20:43:31.688Z,13.97
2018-05-29T20:46:02.735Z,13.33
2018-05-29T20:48:32.129Z,15.07
2018-05-29T20:51:01.505Z,15.03
2018-05-29T20:53:29.749Z,15.47
2018-05-29T20:55:59.515Z,14.60
2018-05-29T20:58:28.810Z,14.13
2018-05-29T21:00:59.820Z,13.00
2018-05-29T21:03:28.515Z,13.13
2018-05-29T21:06:03.165Z,13.13
2018-05-29T21:08:31.927Z,14.07
2018-05-29T21:11:01.086Z,13.10
2018-05-29T21:13:31.150Z,15.97
2018-05-29T21:15:59.944Z,13.00
2018-05-29T21:18:28.629Z,13.70
2018-05-29T21:20:57.185Z,13.17
2018-05-29T21:23:26.953Z,12.83
2018-05-29T21:25:56.975Z,13.43
2018-05-29T21:28:25.869Z,13.47
2018-05-29T21:30:55.065Z,11.70
2018-05-29T21:33:24.313Z,12.67
2018-05-29T21:35:52.756Z,13.07
2018-05-29T21:38:21.436Z,12.43
2018-05-29T21:40:50.861Z,11.97
2018-05-29T21:43:20.500Z,13.33
2018-05-29T21:45:50.775Z,12.73
2018-05-29T21:48:19.372Z,13.50
2018-05-29T21:50:48.727Z,13.47
2018-05-29T21:53:17.209Z,15.13
2018-05-29T21:55:45.772Z,15.67
2018-05-29T21:58:15.300Z,15.20
2018-05-29T22:00:44.176Z,14.47
2018-05-29T22:03:12.854Z,15.13
2018-05-29T22:05:41.403Z,15.77
2018-05-29T22:08:10.818Z,19.20
2018-05-29T22:10:41.089Z,23.10
2018-05-29T22:13:09.670Z,22.53
2018-05-29T22:15:38.291Z,21.13
2018-05-29T22:18:07.833Z,21.77
2018-05-29T22:20:36.558Z,26.07
2018-05-29T22:23:06.820Z,26.37
2018-05-29T22:25:35.333Z,27.13
2018-05-29T22:28:03.826Z,24.50
2018-05-29T22:30:32.504Z,27.20
2018-05-29T22:33:04.327Z,27.80
2018-05-29T22:35:33.194Z,26.50
2018-05-29T22:38:01.843Z,27.50
2018-05-29T22:40:31.751Z,29.33
2018-05-29T22:43:01.864Z,27.23
2018-05-29T22:45:32.028Z,26.07
2018-05-29T22:48:01.600Z,24.13
2018-05-29T22:50:31.216Z,23.20
2018-05-29T22:53:00.199Z,25.57
2018-05-29T22:55:28.653Z,22.63
2018-05-29T22:57:57.137Z,21.53
2018-05-29T23:00:26.350Z,20.63
2018-05-29T23:02:56.319Z,19.70
2018-05-29T23:05:25.638Z,21.23
2018-05-29T23:07:54.083Z,22.70
2018-05-29T23:10:24.150Z,25.53
2018-05-29T23:12:52.852Z,25.20
2018-05-29T23:15:22.507Z,27.37
2018-05-29T23:17:50.692Z,28.80
2018-05-29T23:20:19.134Z,29.50
2018-05-29T23:22:48.662Z,30.63
2018-05-29T23:25:18.163Z,30.93
2018-05-29T23:27:46.706Z,31.67
2018-05-29T23:30:15.389Z,31.57
2018-05-29T23:32:43.676Z,32.47
2018-05-29T23:35:12.128Z,32.47
2018-05-29T23:37:40.843Z,31.50
2018-05-29T23:40:09.632Z,31.47
2018-05-29T23:42:38.071Z,33.70
2018-05-29T23:45:06.527Z,34.63
2018-05-29T23:47:34.979Z,37.10
2018-05-29T23:50:06.264Z,35.20
2018-05-29T23:52:34.731Z,36.07
2018-05-29T23:55:03.187Z,34.07
2018-05-29T23:57:31.654Z,36.13
